sensor_id;sensor_type;location;lat;lon;timestamp;P1;durP1;ratioP1;P2;durP2;ratioP2
13032;SDS011;6583;42.632;23.298;2023-06-22T00:00:45;7.18;;;6.57;;
13032;SDS011;6583;42.632;23.298;2023-06-22T00:03:12;8.00;;;7.30;;
13032;SDS011;6583;42.632;23.298;2023-06-22T00:05:38;8.13;;;7.40;;
13032;SDS011;6583;42.632;23.298;2023-06-22T00:08:05;7.70;;;7.10;;
13032;SDS011;6583;42.632;23.298;2023-06-22T00:10:32;7.95;;;7.25;;
13032;SDS011;6583;42.632;23.298;2023-06-22T00:12:58;8.10;;;6.90;;
13032;SDS011;6583;42.632;23.298;2023-06-22T00:15:26;7.68;;;6.97;;
13032;SDS011;6583;42.632;23.298;2023-06-22T00:17:53;7.35;;;6.75;;
13032;SDS011;6583;42.632;23.298;2023-06-22T00:20:22;7.57;;;6.95;;
13032;SDS011;6583;42.632;23.298;2023-06-22T00:22:52;9.00;;;7.00;;
13032;SDS011;6583;42.632;23.298;2023-06-22T00:25:19;7.70;;;7.00;;
13032;SDS011;6583;42.632;23.298;2023-06-22T00:27:46;7.40;;;6.80;;
13032;SDS011;6583;42.632;23.298;2023-06-22T00:30:13;6.97;;;6.38;;
13032;SDS011;6583;42.632;23.298;2023-06-22T00:32:41;6.97;;;6.38;;
13032;SDS011;6583;42.632;23.298;2023-06-22T00:35:08;7.30;;;6.60;;
13032;SDS011;6583;42.632;23.298;2023-06-22T00:37:35;7.28;;;6.68;;
13032;SDS011;6583;42.632;23.298;2023-06-22T00:40:03;7.90;;;6.57;;
13032;SDS011;6583;42.632;23.298;2023-06-22T00:42:31;7.20;;;6.60;;
13032;SDS011;6583;42.632;23.298;2023-06-22T00:44:57;7.53;;;6.82;;
13032;SDS011;6583;42.632;23.298;2023-06-22T00:47:24;7.18;;;6.57;;
13032;SDS011;6583;42.632;23.298;2023-06-22T00:49:52;7.10;;;6.45;;
13032;SDS011;6583;42.632;23.298;2023-06-22T00:52:19;7.95;;;7.20;;
13032;SDS011;6583;42.632;23.298;2023-06-22T00:54:52;7.15;;;6.45;;
13032;SDS011;6583;42.632;23.298;2023-06-22T00:57:19;7.63;;;6.93;;
13032;SDS011;6583;42.632;23.298;2023-06-22T00:59:48;7.18;;;6.57;;
13032;SDS011;6583;42.632;23.298;2023-06-22T01:02:15;7.22;;;6.53;;
13032;SDS011;6583;42.632;23.298;2023-06-22T01:04:41;6.88;;;6.28;;
13032;SDS011;6583;42.632;23.298;2023-06-22T01:07:13;7.82;;;7.13;;
13032;SDS011;6583;42.632;23.298;2023-06-22T01:09:49;7.45;;;6.55;;
13032;SDS011;6583;42.632;23.298;2023-06-22T01:12:21;7.70;;;6.95;;
13032;SDS011;6583;42.632;23.298;2023-06-22T01:14:51;7.15;;;6.55;;
13032;SDS011;6583;42.632;23.298;2023-06-22T01:17:24;7.75;;;6.95;;
13032;SDS011;6583;42.632;23.298;2023-06-22T01:19:54;7.65;;;6.95;;
13032;SDS011;6583;42.632;23.298;2023-06-22T01:22:23;8.18;;;7.38;;
13032;SDS011;6583;42.632;23.298;2023-06-22T01:24:56;7.85;;;7.15;;
13032;SDS011;6583;42.632;23.298;2023-06-22T01:27:39;7.82;;;7.13;;
13032;SDS011;6583;42.632;23.298;2023-06-22T01:30:18;7.95;;;7.25;;
13032;SDS011;6583;42.632;23.298;2023-06-22T01:32:45;8.35;;;7.65;;
13032;SDS011;6583;42.632;23.298;2023-06-22T01:35:14;7.90;;;7.10;;
13032;SDS011;6583;42.632;23.298;2023-06-22T01:37:42;8.27;;;7.55;;
13032;SDS011;6583;42.632;23.298;2023-06-22T01:40:09;7.68;;;6.97;;
13032;SDS011;6583;42.632;23.298;2023-06-22T01:42:36;8.27;;;7.57;;
13032;SDS011;6583;42.632;23.298;2023-06-22T01:45:05;7.90;;;7.30;;
13032;SDS011;6583;42.632;23.298;2023-06-22T01:47:34;7.80;;;7.10;;
13032;SDS011;6583;42.632;23.298;2023-06-22T01:50:01;9.00;;;8.20;;
13032;SDS011;6583;42.632;23.298;2023-06-22T01:52:29;8.45;;;7.70;;
13032;SDS011;6583;42.632;23.298;2023-06-22T01:54:56;7.88;;;7.28;;
13032;SDS011;6583;42.632;23.298;2023-06-22T01:57:23;9.20;;;7.88;;
13032;SDS011;6583;42.632;23.298;2023-06-22T01:59:51;9.05;;;8.25;;
13032;SDS011;6583;42.632;23.298;2023-06-22T02:02:24;9.07;;;8.32;;
13032;SDS011;6583;42.632;23.298;2023-06-22T02:04:56;7.82;;;7.13;;
13032;SDS011;6583;42.632;23.298;2023-06-22T02:07:27;8.63;;;7.93;;
13032;SDS011;6583;42.632;23.298;2023-06-22T02:09:58;9.00;;;8.20;;
13032;SDS011;6583;42.632;23.298;2023-06-22T02:12:26;9.57;;;8.77;;
13032;SDS011;6583;42.632;23.298;2023-06-22T02:14:54;8.60;;;7.80;;
13032;SDS011;6583;42.632;23.298;2023-06-22T02:17:22;9.27;;;8.38;;
13032;SDS011;6583;42.632;23.298;2023-06-22T02:19:52;9.52;;;8.70;;
13032;SDS011;6583;42.632;23.298;2023-06-22T02:22:20;9.40;;;8.50;;
13032;SDS011;6583;42.632;23.298;2023-06-22T02:24:46;9.50;;;8.60;;
13032;SDS011;6583;42.632;23.298;2023-06-22T02:27:13;9.48;;;8.57;;
13032;SDS011;6583;42.632;23.298;2023-06-22T02:29:40;8.75;;;7.95;;
13032;SDS011;6583;42.632;23.298;2023-06-22T02:32:07;8.73;;;8.02;;
13032;SDS011;6583;42.632;23.298;2023-06-22T02:34:34;9.60;;;8.70;;
13032;SDS011;6583;42.632;23.298;2023-06-22T02:37:01;9.27;;;8.48;;
13032;SDS011;6583;42.632;23.298;2023-06-22T02:39:30;9.60;;;8.80;;
13032;SDS011;6583;42.632;23.298;2023-06-22T02:41:56;9.88;;;8.98;;
13032;SDS011;6583;42.632;23.298;2023-06-22T02:44:23;9.68;;;8.77;;
13032;SDS011;6583;42.632;23.298;2023-06-22T02:46:50;9.57;;;8.77;;
13032;SDS011;6583;42.632;23.298;2023-06-22T02:49:16;9.32;;;8.55;;
13032;SDS011;6583;42.632;23.298;2023-06-22T02:51:45;9.70;;;8.75;;
13032;SDS011;6583;42.632;23.298;2023-06-22T02:54:12;10.00;;;8.48;;
13032;SDS011;6583;42.632;23.298;2023-06-22T02:56:40;11.38;;;8.82;;
13032;SDS011;6583;42.632;23.298;2023-06-22T02:59:08;9.13;;;8.32;;
13032;SDS011;6583;42.632;23.298;2023-06-22T03:01:36;9.88;;;8.88;;
13032;SDS011;6583;42.632;23.298;2023-06-22T03:04:05;9.38;;;8.55;;
13032;SDS011;6583;42.632;23.298;2023-06-22T03:06:31;12.85;;;9.82;;
13032;SDS011;6583;42.632;23.298;2023-06-22T03:08:58;10.35;;;9.32;;
13032;SDS011;6583;42.632;23.298;2023-06-22T03:11:26;9.93;;;9.02;;
13032;SDS011;6583;42.632;23.298;2023-06-22T03:13:54;9.57;;;8.70;;
13032;SDS011;6583;42.632;23.298;2023-06-22T03:16:20;9.60;;;8.70;;
13032;SDS011;6583;42.632;23.298;2023-06-22T03:18:47;10.35;;;9.32;;
13032;SDS011;6583;42.632;23.298;2023-06-22T03:21:14;10.20;;;9.30;;
13032;SDS011;6583;42.632;23.298;2023-06-22T03:23:42;9.82;;;8.93;;
13032;SDS011;6583;42.632;23.298;2023-06-22T03:26:08;12.35;;;9.35;;
13032;SDS011;6583;42.632;23.298;2023-06-22T03:28:35;10.18;;;9.00;;
13032;SDS011;6583;42.632;23.298;2023-06-22T03:31:04;11.43;;;10.35;;
13032;SDS011;6583;42.632;23.298;2023-06-22T03:33:31;11.13;;;9.55;;
13032;SDS011;6583;42.632;23.298;2023-06-22T03:35:58;12.15;;;9.48;;
13032;SDS011;6583;42.632;23.298;2023-06-22T03:38:25;11.25;;;10.18;;
13032;SDS011;6583;42.632;23.298;2023-06-22T03:40:52;12.52;;;11.32;;
13032;SDS011;6583;42.632;23.298;2023-06-22T03:43:18;11.35;;;10.25;;
13032;SDS011;6583;42.632;23.298;2023-06-22T03:45:45;10.35;;;9.40;;
13032;SDS011;6583;42.632;23.298;2023-06-22T03:48:13;11.90;;;9.80;;
13032;SDS011;6583;42.632;23.298;2023-06-22T03:50:40;10.32;;;9.27;;
13032;SDS011;6583;42.632;23.298;2023-06-22T03:53:06;10.85;;;9.68;;
13032;SDS011;6583;42.632;23.298;2023-06-22T03:55:33;10.82;;;9.85;;
13032;SDS011;6583;42.632;23.298;2023-06-22T03:58:00;10.90;;;9.80;;
13032;SDS011;6583;42.632;23.298;2023-06-22T04:00:30;11.75;;;10.68;;
13032;SDS011;6583;42.632;23.298;2023-06-22T04:02:57;12.00;;;10.75;;
13032;SDS011;6583;42.632;23.298;2023-06-22T04:05:25;11.40;;;10.30;;
13032;SDS011;6583;42.632;23.298;2023-06-22T04:07:52;11.52;;;10.40;;
13032;SDS011;6583;42.632;23.298;2023-06-22T04:10:18;11.80;;;10.70;;
13032;SDS011;6583;42.632;23.298;2023-06-22T04:12:45;13.05;;;11.85;;
13032;SDS011;6583;42.632;23.298;2023-06-22T04:15:12;12.35;;;11.25;;
13032;SDS011;6583;42.632;23.298;2023-06-22T04:17:38;12.80;;;11.50;;
13032;SDS011;6583;42.632;23.298;2023-06-22T04:20:06;12.25;;;11.05;;
13032;SDS011;6583;42.632;23.298;2023-06-22T04:22:35;13.25;;;10.95;;
13032;SDS011;6583;42.632;23.298;2023-06-22T04:25:02;12.13;;;10.95;;
13032;SDS011;6583;42.632;23.298;2023-06-22T04:27:28;15.38;;;11.23;;
13032;SDS011;6583;42.632;23.298;2023-06-22T04:29:55;16.50;;;12.63;;
13032;SDS011;6583;42.632;23.298;2023-06-22T04:32:25;18.38;;;12.52;;
13032;SDS011;6583;42.632;23.298;2023-06-22T04:34:51;14.07;;;12.55;;
13032;SDS011;6583;42.632;23.298;2023-06-22T04:37:18;17.17;;;12.18;;
13032;SDS011;6583;42.632;23.298;2023-06-22T04:39:49;13.80;;;12.13;;
13032;SDS011;6583;42.632;23.298;2023-06-22T04:42:16;14.80;;;12.15;;
13032;SDS011;6583;42.632;23.298;2023-06-22T04:44:43;14.45;;;12.65;;
13032;SDS011;6583;42.632;23.298;2023-06-22T04:47:09;14.07;;;12.20;;
13032;SDS011;6583;42.632;23.298;2023-06-22T04:49:36;14.82;;;12.65;;
13032;SDS011;6583;42.632;23.298;2023-06-22T04:52:05;13.77;;;12.48;;
13032;SDS011;6583;42.632;23.298;2023-06-22T04:54:33;14.60;;;12.57;;
13032;SDS011;6583;42.632;23.298;2023-06-22T04:57:01;15.52;;;12.90;;
13032;SDS011;6583;42.632;23.298;2023-06-22T04:59:30;18.42;;;13.10;;
13032;SDS011;6583;42.632;23.298;2023-06-22T05:01:58;13.98;;;12.63;;
13032;SDS011;6583;42.632;23.298;2023-06-22T05:04:27;15.05;;;13.18;;
13032;SDS011;6583;42.632;23.298;2023-06-22T05:06:56;14.07;;;12.73;;
13032;SDS011;6583;42.632;23.298;2023-06-22T05:09:24;13.50;;;12.10;;
13032;SDS011;6583;42.632;23.298;2023-06-22T05:11:51;13.80;;;12.40;;
13032;SDS011;6583;42.632;23.298;2023-06-22T05:14:19;14.35;;;12.20;;
13032;SDS011;6583;42.632;23.298;2023-06-22T05:16:46;14.23;;;12.20;;
13032;SDS011;6583;42.632;23.298;2023-06-22T05:19:12;15.32;;;12.75;;
13032;SDS011;6583;42.632;23.298;2023-06-22T05:21:39;14.30;;;12.18;;
13032;SDS011;6583;42.632;23.298;2023-06-22T05:24:06;15.05;;;12.10;;
13032;SDS011;6583;42.632;23.298;2023-06-22T05:26:33;16.83;;;12.10;;
13032;SDS011;6583;42.632;23.298;2023-06-22T05:29:01;14.23;;;12.75;;
13032;SDS011;6583;42.632;23.298;2023-06-22T05:31:30;13.80;;;12.35;;
13032;SDS011;6583;42.632;23.298;2023-06-22T05:33:56;17.58;;;13.30;;
13032;SDS011;6583;42.632;23.298;2023-06-22T05:36:24;14.15;;;12.55;;
13032;SDS011;6583;42.632;23.298;2023-06-22T05:38:51;17.58;;;13.13;;
13032;SDS011;6583;42.632;23.298;2023-06-22T05:41:18;17.40;;;12.70;;
13032;SDS011;6583;42.632;23.298;2023-06-22T05:43:45;15.82;;;13.82;;
13032;SDS011;6583;42.632;23.298;2023-06-22T05:46:12;15.15;;;12.43;;
13032;SDS011;6583;42.632;23.298;2023-06-22T05:48:40;15.43;;;12.65;;
13032;SDS011;6583;42.632;23.298;2023-06-22T05:51:07;15.65;;;13.82;;
13032;SDS011;6583;42.632;23.298;2023-06-22T05:53:33;15.77;;;13.85;;
13032;SDS011;6583;42.632;23.298;2023-06-22T05:56:00;16.10;;;13.50;;
13032;SDS011;6583;42.632;23.298;2023-06-22T05:58:27;17.38;;;13.80;;
13032;SDS011;6583;42.632;23.298;2023-06-22T06:00:54;15.30;;;13.13;;
13032;SDS011;6583;42.632;23.298;2023-06-22T06:03:20;19.17;;;14.77;;
13032;SDS011;6583;42.632;23.298;2023-06-22T06:05:49;16.10;;;14.40;;
13032;SDS011;6583;42.632;23.298;2023-06-22T06:08:16;18.13;;;13.82;;
13032;SDS011;6583;42.632;23.298;2023-06-22T06:10:42;16.17;;;14.38;;
13032;SDS011;6583;42.632;23.298;2023-06-22T06:13:09;16.33;;;14.73;;
13032;SDS011;6583;42.632;23.298;2023-06-22T06:15:35;17.70;;;14.75;;
13032;SDS011;6583;42.632;23.298;2023-06-22T06:18:02;18.45;;;14.52;;
13032;SDS011;6583;42.632;23.298;2023-06-22T06:20:30;18.25;;;13.90;;
13032;SDS011;6583;42.632;23.298;2023-06-22T06:22:58;15.63;;;14.02;;
13032;SDS011;6583;42.632;23.298;2023-06-22T06:25:25;17.23;;;13.02;;
13032;SDS011;6583;42.632;23.298;2023-06-22T06:27:52;14.02;;;12.60;;
13032;SDS011;6583;42.632;23.298;2023-06-22T06:30:19;19.25;;;12.80;;
13032;SDS011;6583;42.632;23.298;2023-06-22T06:32:47;18.58;;;13.07;;
13032;SDS011;6583;42.632;23.298;2023-06-22T06:35:14;16.35;;;12.77;;
13032;SDS011;6583;42.632;23.298;2023-06-22T06:37:42;16.08;;;12.63;;
13032;SDS011;6583;42.632;23.298;2023-06-22T06:40:11;14.80;;;12.57;;
13032;SDS011;6583;42.632;23.298;2023-06-22T06:42:40;19.98;;;12.27;;
13032;SDS011;6583;42.632;23.298;2023-06-22T06:45:10;14.57;;;13.05;;
13032;SDS011;6583;42.632;23.298;2023-06-22T06:47:37;14.00;;;12.68;;
13032;SDS011;6583;42.632;23.298;2023-06-22T06:50:04;15.50;;;12.52;;
13032;SDS011;6583;42.632;23.298;2023-06-22T06:52:31;14.45;;;13.10;;
13032;SDS011;6583;42.632;23.298;2023-06-22T06:54:58;14.57;;;13.13;;
13032;SDS011;6583;42.632;23.298;2023-06-22T06:57:27;14.55;;;12.82;;
13032;SDS011;6583;42.632;23.298;2023-06-22T06:59:54;13.73;;;12.43;;
13032;SDS011;6583;42.632;23.298;2023-06-22T07:02:21;13.63;;;12.32;;
13032;SDS011;6583;42.632;23.298;2023-06-22T07:04:48;15.07;;;12.85;;
13032;SDS011;6583;42.632;23.298;2023-06-22T07:07:15;14.48;;;12.07;;
13032;SDS011;6583;42.632;23.298;2023-06-22T07:09:42;13.55;;;12.18;;
13032;SDS011;6583;42.632;23.298;2023-06-22T07:12:09;13.98;;;12.68;;
13032;SDS011;6583;42.632;23.298;2023-06-22T07:14:37;14.07;;;11.32;;
13032;SDS011;6583;42.632;23.298;2023-06-22T07:17:04;16.10;;;12.23;;
13032;SDS011;6583;42.632;23.298;2023-06-22T07:19:32;12.00;;;11.00;;
13032;SDS011;6583;42.632;23.298;2023-06-22T07:21:59;12.70;;;11.50;;
13032;SDS011;6583;42.632;23.298;2023-06-22T07:24:25;16.10;;;12.60;;
13032;SDS011;6583;42.632;23.298;2023-06-22T07:26:52;14.77;;;12.10;;
13032;SDS011;6583;42.632;23.298;2023-06-22T07:29:19;15.98;;;13.00;;
13032;SDS011;6583;42.632;23.298;2023-06-22T07:31:49;14.30;;;12.93;;
13032;SDS011;6583;42.632;23.298;2023-06-22T07:34:17;14.90;;;12.90;;
13032;SDS011;6583;42.632;23.298;2023-06-22T07:36:44;14.55;;;12.90;;
13032;SDS011;6583;42.632;23.298;2023-06-22T07:39:12;13.98;;;12.60;;
13032;SDS011;6583;42.632;23.298;2023-06-22T07:41:39;13.95;;;12.60;;
13032;SDS011;6583;42.632;23.298;2023-06-22T07:44:06;15.23;;;13.73;;
13032;SDS011;6583;42.632;23.298;2023-06-22T07:46:33;16.48;;;13.38;;
13032;SDS011;6583;42.632;23.298;2023-06-22T07:49:01;14.98;;;13.57;;
13032;SDS011;6583;42.632;23.298;2023-06-22T07:51:28;15.18;;;13.30;;
13032;SDS011;6583;42.632;23.298;2023-06-22T07:53:55;14.88;;;13.20;;
13032;SDS011;6583;42.632;23.298;2023-06-22T07:56:21;14.88;;;13.38;;
13032;SDS011;6583;42.632;23.298;2023-06-22T07:58:48;15.57;;;13.93;;
13032;SDS011;6583;42.632;23.298;2023-06-22T08:01:14;14.77;;;13.38;;
13032;SDS011;6583;42.632;23.298;2023-06-22T08:03:41;15.38;;;13.80;;
13032;SDS011;6583;42.632;23.298;2023-06-22T08:06:10;19.88;;;17.65;;
13032;SDS011;6583;42.632;23.298;2023-06-22T08:08:36;17.50;;;15.70;;
13032;SDS011;6583;42.632;23.298;2023-06-22T08:11:03;15.48;;;13.73;;
13032;SDS011;6583;42.632;23.298;2023-06-22T08:13:30;15.20;;;13.63;;
13032;SDS011;6583;42.632;23.298;2023-06-22T08:15:57;15.02;;;12.60;;
13032;SDS011;6583;42.632;23.298;2023-06-22T08:18:24;14.60;;;12.70;;
13032;SDS011;6583;42.632;23.298;2023-06-22T08:20:50;14.88;;;13.55;;
13032;SDS011;6583;42.632;23.298;2023-06-22T08:23:19;13.95;;;12.65;;
13032;SDS011;6583;42.632;23.298;2023-06-22T08:25:45;13.93;;;12.73;;
13032;SDS011;6583;42.632;23.298;2023-06-22T08:28:13;13.43;;;12.32;;
13032;SDS011;6583;42.632;23.298;2023-06-22T08:30:39;13.75;;;12.32;;
13032;SDS011;6583;42.632;23.298;2023-06-22T08:33:06;12.88;;;11.68;;
13032;SDS011;6583;42.632;23.298;2023-06-22T08:35:33;14.20;;;12.88;;
13032;SDS011;6583;42.632;23.298;2023-06-22T08:37:59;14.32;;;13.05;;
13032;SDS011;6583;42.632;23.298;2023-06-22T08:40:28;15.10;;;13.55;;
13032;SDS011;6583;42.632;23.298;2023-06-22T08:42:55;13.30;;;12.10;;
13032;SDS011;6583;42.632;23.298;2023-06-22T08:45:22;13.27;;;12.07;;
13032;SDS011;6583;42.632;23.298;2023-06-22T08:47:49;14.73;;;13.18;;
13032;SDS011;6583;42.632;23.298;2023-06-22T08:50:16;12.90;;;11.90;;
13032;SDS011;6583;42.632;23.298;2023-06-22T08:52:42;13.75;;;12.45;;
13032;SDS011;6583;42.632;23.298;2023-06-22T08:55:10;14.38;;;12.80;;
13032;SDS011;6583;42.632;23.298;2023-06-22T08:57:39;14.27;;;12.95;;
13032;SDS011;6583;42.632;23.298;2023-06-22T09:00:06;14.73;;;13.38;;
13032;SDS011;6583;42.632;23.298;2023-06-22T09:02:45;11.75;;;10.75;;
13032;SDS011;6583;42.632;23.298;2023-06-22T09:05:12;12.75;;;11.65;;
13032;SDS011;6583;42.632;23.298;2023-06-22T09:07:39;12.88;;;11.75;;
13032;SDS011;6583;42.632;23.298;2023-06-22T09:10:06;12.15;;;11.07;;
13032;SDS011;6583;42.632;23.298;2023-06-22T09:12:33;11.85;;;10.80;;
13032;SDS011;6583;42.632;23.298;2023-06-22T09:15:07;11.18;;;10.27;;
13032;SDS011;6583;42.632;23.298;2023-06-22T09:17:34;10.88;;;9.95;;
13032;SDS011;6583;42.632;23.298;2023-06-22T09:20:02;11.18;;;10.27;;
13032;SDS011;6583;42.632;23.298;2023-06-22T09:22:30;11.88;;;10.77;;
13032;SDS011;6583;42.632;23.298;2023-06-22T09:24:57;11.85;;;10.85;;
13032;SDS011;6583;42.632;23.298;2023-06-22T09:27:24;11.50;;;10.45;;
13032;SDS011;6583;42.632;23.298;2023-06-22T09:29:51;12.57;;;11.48;;
13032;SDS011;6583;42.632;23.298;2023-06-22T09:32:19;11.40;;;10.45;;
13032;SDS011;6583;42.632;23.298;2023-06-22T09:34:46;12.43;;;11.40;;
13032;SDS011;6583;42.632;23.298;2023-06-22T09:37:12;12.20;;;11.10;;
13032;SDS011;6583;42.632;23.298;2023-06-22T09:39:39;11.68;;;10.68;;
13032;SDS011;6583;42.632;23.298;2023-06-22T09:42:06;11.48;;;10.57;;
13032;SDS011;6583;42.632;23.298;2023-06-22T09:44:33;11.00;;;10.00;;
13032;SDS011;6583;42.632;23.298;2023-06-22T09:47:00;11.27;;;10.40;;
13032;SDS011;6583;42.632;23.298;2023-06-22T09:49:28;12.32;;;11.32;;
13032;SDS011;6583;42.632;23.298;2023-06-22T09:51:55;11.45;;;10.55;;
13032;SDS011;6583;42.632;23.298;2023-06-22T09:54:21;11.90;;;10.90;;
13032;SDS011;6583;42.632;23.298;2023-06-22T09:56:49;11.85;;;10.80;;
13032;SDS011;6583;42.632;23.298;2023-06-22T09:59:15;11.32;;;10.32;;
13032;SDS011;6583;42.632;23.298;2023-06-22T10:01:42;10.40;;;9.60;;
13032;SDS011;6583;42.632;23.298;2023-06-22T10:04:08;10.82;;;9.93;;
13032;SDS011;6583;42.632;23.298;2023-06-22T10:06:36;12.27;;;11.13;;
13032;SDS011;6583;42.632;23.298;2023-06-22T10:09:05;11.30;;;10.50;;
13032;SDS011;6583;42.632;23.298;2023-06-22T10:11:32;10.68;;;9.88;;
13032;SDS011;6583;42.632;23.298;2023-06-22T10:14:00;10.48;;;9.68;;
13032;SDS011;6583;42.632;23.298;2023-06-22T10:16:29;10.88;;;9.90;;
13032;SDS011;6583;42.632;23.298;2023-06-22T10:18:57;10.45;;;9.65;;
13032;SDS011;6583;42.632;23.298;2023-06-22T10:21:23;10.75;;;9.77;;
13032;SDS011;6583;42.632;23.298;2023-06-22T10:23:53;11.07;;;10.18;;
13032;SDS011;6583;42.632;23.298;2023-06-22T10:26:20;11.15;;;10.25;;
13032;SDS011;6583;42.632;23.298;2023-06-22T10:28:46;11.57;;;10.38;;
13032;SDS011;6583;42.632;23.298;2023-06-22T10:31:13;10.68;;;9.77;;
13032;SDS011;6583;42.632;23.298;2023-06-22T10:33:41;10.82;;;10.02;;
13032;SDS011;6583;42.632;23.298;2023-06-22T10:36:09;11.13;;;10.20;;
13032;SDS011;6583;42.632;23.298;2023-06-22T10:38:36;10.90;;;10.07;;
13032;SDS011;6583;42.632;23.298;2023-06-22T10:41:04;11.85;;;10.82;;
13032;SDS011;6583;42.632;23.298;2023-06-22T10:43:30;10.55;;;9.55;;
13032;SDS011;6583;42.632;23.298;2023-06-22T10:45:57;10.70;;;9.80;;
13032;SDS011;6583;42.632;23.298;2023-06-22T10:48:24;11.70;;;10.68;;
13032;SDS011;6583;42.632;23.298;2023-06-22T10:50:50;11.80;;;10.57;;
13032;SDS011;6583;42.632;23.298;2023-06-22T10:53:18;11.70;;;10.75;;
13032;SDS011;6583;42.632;23.298;2023-06-22T10:55:45;11.10;;;10.20;;
13032;SDS011;6583;42.632;23.298;2023-06-22T10:58:13;10.65;;;9.85;;
13032;SDS011;6583;42.632;23.298;2023-06-22T11:00:39;11.27;;;10.23;;
13032;SDS011;6583;42.632;23.298;2023-06-22T11:03:06;10.70;;;9.82;;
13032;SDS011;6583;42.632;23.298;2023-06-22T11:05:32;10.48;;;9.55;;
13032;SDS011;6583;42.632;23.298;2023-06-22T11:07:59;11.30;;;10.23;;
13032;SDS011;6583;42.632;23.298;2023-06-22T11:10:26;10.35;;;9.45;;
13032;SDS011;6583;42.632;23.298;2023-06-22T11:12:53;10.93;;;10.13;;
13032;SDS011;6583;42.632;23.298;2023-06-22T11:15:22;11.70;;;10.55;;
13032;SDS011;6583;42.632;23.298;2023-06-22T11:17:48;11.32;;;10.38;;
13032;SDS011;6583;42.632;23.298;2023-06-22T11:20:15;11.10;;;10.30;;
13032;SDS011;6583;42.632;23.298;2023-06-22T11:22:42;12.50;;;11.30;;
13032;SDS011;6583;42.632;23.298;2023-06-22T11:25:08;12.30;;;11.07;;
13032;SDS011;6583;42.632;23.298;2023-06-22T11:27:36;14.68;;;10.38;;
13032;SDS011;6583;42.632;23.298;2023-06-22T11:30:03;11.45;;;10.40;;
13032;SDS011;6583;42.632;23.298;2023-06-22T11:32:32;12.48;;;11.05;;
13032;SDS011;6583;42.632;23.298;2023-06-22T11:34:58;11.65;;;10.65;;
13032;SDS011;6583;42.632;23.298;2023-06-22T11:37:25;11.82;;;10.93;;
13032;SDS011;6583;42.632;23.298;2023-06-22T11:39:52;12.00;;;11.00;;
13032;SDS011;6583;42.632;23.298;2023-06-22T11:42:20;11.10;;;10.13;;
13032;SDS011;6583;42.632;23.298;2023-06-22T11:44:48;11.30;;;10.32;;
13032;SDS011;6583;42.632;23.298;2023-06-22T11:47:15;10.23;;;9.40;;
13032;SDS011;6583;42.632;23.298;2023-06-22T11:49:43;11.18;;;9.52;;
13032;SDS011;6583;42.632;23.298;2023-06-22T11:52:09;11.43;;;10.52;;
13032;SDS011;6583;42.632;23.298;2023-06-22T11:54:36;11.40;;;10.30;;
13032;SDS011;6583;42.632;23.298;2023-06-22T11:57:03;11.35;;;10.15;;
13032;SDS011;6583;42.632;23.298;2023-06-22T11:59:30;11.27;;;10.18;;
13032;SDS011;6583;42.632;23.298;2023-06-22T12:01:57;12.07;;;10.98;;
13032;SDS011;6583;42.632;23.298;2023-06-22T12:04:24;12.40;;;11.10;;
13032;SDS011;6583;42.632;23.298;2023-06-22T12:06:52;11.55;;;10.45;;
13032;SDS011;6583;42.632;23.298;2023-06-22T12:09:19;10.98;;;10.02;;
13032;SDS011;6583;42.632;23.298;2023-06-22T12:11:45;12.18;;;10.98;;
13032;SDS011;6583;42.632;23.298;2023-06-22T12:14:12;11.85;;;10.43;;
13032;SDS011;6583;42.632;23.298;2023-06-22T12:16:39;13.55;;;10.85;;
13032;SDS011;6583;42.632;23.298;2023-06-22T12:19:05;11.50;;;10.40;;
13032;SDS011;6583;42.632;23.298;2023-06-22T12:21:32;11.27;;;10.27;;
13032;SDS011;6583;42.632;23.298;2023-06-22T12:24:00;11.82;;;10.75;;
13032;SDS011;6583;42.632;23.298;2023-06-22T12:26:26;13.73;;;11.20;;
13032;SDS011;6583;42.632;23.298;2023-06-22T12:28:53;12.57;;;10.45;;
13032;SDS011;6583;42.632;23.298;2023-06-22T12:31:20;12.15;;;10.85;;
13032;SDS011;6583;42.632;23.298;2023-06-22T12:33:46;11.65;;;10.45;;
13032;SDS011;6583;42.632;23.298;2023-06-22T12:36:13;13.05;;;11.80;;
13032;SDS011;6583;42.632;23.298;2023-06-22T12:38:41;15.23;;;13.15;;
13032;SDS011;6583;42.632;23.298;2023-06-22T12:41:09;14.80;;;12.60;;
13032;SDS011;6583;42.632;23.298;2023-06-22T12:43:36;12.50;;;11.40;;
13032;SDS011;6583;42.632;23.298;2023-06-22T12:46:02;12.68;;;11.57;;
13032;SDS011;6583;42.632;23.298;2023-06-22T12:48:29;12.27;;;11.05;;
13032;SDS011;6583;42.632;23.298;2023-06-22T12:50:56;12.68;;;11.15;;
13032;SDS011;6583;42.632;23.298;2023-06-22T12:53:22;11.73;;;10.60;;
13032;SDS011;6583;42.632;23.298;2023-06-22T12:55:52;15.77;;;11.02;;
13032;SDS011;6583;42.632;23.298;2023-06-22T12:58:20;12.75;;;11.45;;
13032;SDS011;6583;42.632;23.298;2023-06-22T13:00:47;12.48;;;11.27;;
13032;SDS011;6583;42.632;23.298;2023-06-22T13:03:14;13.65;;;12.25;;
13032;SDS011;6583;42.632;23.298;2023-06-22T13:05:41;12.93;;;11.73;;
13032;SDS011;6583;42.632;23.298;2023-06-22T13:08:07;12.35;;;11.25;;
13032;SDS011;6583;42.632;23.298;2023-06-22T13:10:36;12.63;;;11.32;;
13032;SDS011;6583;42.632;23.298;2023-06-22T13:13:02;13.63;;;12.27;;
13032;SDS011;6583;42.632;23.298;2023-06-22T13:15:30;12.57;;;11.50;;
13032;SDS011;6583;42.632;23.298;2023-06-22T13:17:57;12.48;;;11.35;;
13032;SDS011;6583;42.632;23.298;2023-06-22T13:20:24;14.50;;;13.00;;
13032;SDS011;6583;42.632;23.298;2023-06-22T13:22:50;12.07;;;11.07;;
13032;SDS011;6583;42.632;23.298;2023-06-22T13:25:18;15.65;;;12.25;;
13032;SDS011;6583;42.632;23.298;2023-06-22T13:27:48;13.35;;;12.07;;
13032;SDS011;6583;42.632;23.298;2023-06-22T13:30:14;12.73;;;11.63;;
13032;SDS011;6583;42.632;23.298;2023-06-22T13:32:42;12.63;;;11.48;;
13032;SDS011;6583;42.632;23.298;2023-06-22T13:35:09;12.40;;;11.38;;
13032;SDS011;6583;42.632;23.298;2023-06-22T13:37:36;12.32;;;11.30;;
13032;SDS011;6583;42.632;23.298;2023-06-22T13:40:04;12.02;;;11.02;;
13032;SDS011;6583;42.632;23.298;2023-06-22T13:42:32;11.55;;;10.45;;
13032;SDS011;6583;42.632;23.298;2023-06-22T13:44:58;11.70;;;10.70;;
13032;SDS011;6583;42.632;23.298;2023-06-22T13:47:25;12.75;;;11.40;;
13032;SDS011;6583;42.632;23.298;2023-06-22T13:49:53;11.65;;;10.52;;
13032;SDS011;6583;42.632;23.298;2023-06-22T13:52:20;11.88;;;10.88;;
13032;SDS011;6583;42.632;23.298;2023-06-22T13:54:47;11.38;;;10.27;;
13032;SDS011;6583;42.632;23.298;2023-06-22T13:57:13;10.15;;;9.25;;
13032;SDS011;6583;42.632;23.298;2023-06-22T13:59:40;10.95;;;10.00;;
13032;SDS011;6583;42.632;23.298;2023-06-22T14:02:07;10.68;;;9.77;;
13032;SDS011;6583;42.632;23.298;2023-06-22T14:04:33;9.55;;;8.70;;
13032;SDS011;6583;42.632;23.298;2023-06-22T14:07:01;10.63;;;9.48;;
13032;SDS011;6583;42.632;23.298;2023-06-22T14:09:28;10.05;;;9.20;;
13032;SDS011;6583;42.632;23.298;2023-06-22T14:11:55;9.50;;;8.60;;
13032;SDS011;6583;42.632;23.298;2023-06-22T14:14:21;9.38;;;8.65;;
13032;SDS011;6583;42.632;23.298;2023-06-22T14:16:48;9.98;;;9.05;;
13032;SDS011;6583;42.632;23.298;2023-06-22T14:19:16;12.88;;;10.27;;
13032;SDS011;6583;42.632;23.298;2023-06-22T14:21:43;10.88;;;9.80;;
13032;SDS011;6583;42.632;23.298;2023-06-22T14:24:11;10.38;;;9.57;;
13032;SDS011;6583;42.632;23.298;2023-06-22T14:26:38;11.43;;;10.18;;
13032;SDS011;6583;42.632;23.298;2023-06-22T14:29:05;11.98;;;10.77;;